sensor_id;sensor_type;location;lat;lon;timestamp;P1;durP1;ratioP1;P2;durP2;ratioP2
3249;SDS011;1637;42.020;23.992;2023-04-03T00:00:48;14.63;;;5.73;;
3249;SDS011;1637;42.020;23.992;2023-04-03T00:03:15;13.20;;;4.53;;
3249;SDS011;1637;42.020;23.992;2023-04-03T00:05:42;10.10;;;4.50;;
3249;SDS011;1637;42.020;23.992;2023-04-03T00:08:10;8.73;;;3.57;;
3249;SDS011;1637;42.020;23.992;2023-04-03T00:10:37;3.87;;;1.33;;
3249;SDS011;1637;42.020;23.992;2023-04-03T00:13:04;4.47;;;1.60;;
3249;SDS011;1637;42.020;23.992;2023-04-03T00:15:31;2.53;;;1.50;;
3249;SDS011;1637;42.020;23.992;2023-04-03T00:17:59;2.00;;;1.40;;
3249;SDS011;1637;42.020;23.992;2023-04-03T00:20:25;2.43;;;1.57;;
3249;SDS011;1637;42.020;23.992;2023-04-03T00:22:53;1.60;;;1.13;;
3249;SDS011;1637;42.020;23.992;2023-04-03T00:25:22;2.53;;;1.30;;
3249;SDS011;1637;42.020;23.992;2023-04-03T00:27:49;1.77;;;1.33;;
3249;SDS011;1637;42.020;23.992;2023-04-03T00:30:17;3.87;;;1.40;;
3249;SDS011;1637;42.020;23.992;2023-04-03T00:32:47;1.80;;;1.40;;
3249;SDS011;1637;42.020;23.992;2023-04-03T00:35:14;4.07;;;2.20;;
3249;SDS011;1637;42.020;23.992;2023-04-03T00:37:41;6.00;;;3.20;;
3249;SDS011;1637;42.020;23.992;2023-04-03T00:40:08;3.37;;;2.20;;
3249;SDS011;1637;42.020;23.992;2023-04-03T00:42:38;5.90;;;3.57;;
3249;SDS011;1637;42.020;23.992;2023-04-03T00:45:28;5.37;;;3.23;;
3249;SDS011;1637;42.020;23.992;2023-04-03T00:47:57;8.70;;;3.47;;
3249;SDS011;1637;42.020;23.992;2023-04-03T00:50:26;10.67;;;4.83;;
3249;SDS011;1637;42.020;23.992;2023-04-03T00:52:55;10.20;;;5.43;;
3249;SDS011;1637;42.020;23.992;2023-04-03T00:55:22;9.70;;;4.17;;
3249;SDS011;1637;42.020;23.992;2023-04-03T00:57:50;19.93;;;4.40;;
3249;SDS011;1637;42.020;23.992;2023-04-03T01:00:19;11.10;;;5.87;;
3249;SDS011;1637;42.020;23.992;2023-04-03T01:02:48;17.63;;;4.50;;
3249;SDS011;1637;42.020;23.992;2023-04-03T01:05:15;16.20;;;5.80;;
3249;SDS011;1637;42.020;23.992;2023-04-03T01:07:43;12.43;;;5.67;;
3249;SDS011;1637;42.020;23.992;2023-04-03T01:10:12;11.60;;;5.20;;
3249;SDS011;1637;42.020;23.992;2023-04-03T01:12:42;13.13;;;4.87;;
3249;SDS011;1637;42.020;23.992;2023-04-03T01:15:15;8.40;;;4.07;;
3249;SDS011;1637;42.020;23.992;2023-04-03T01:17:45;9.47;;;4.53;;
3249;SDS011;1637;42.020;23.992;2023-04-03T01:23:29;11.07;;;4.87;;
3249;SDS011;1637;42.020;23.992;2023-04-03T01:26:04;16.67;;;7.10;;
3249;SDS011;1637;42.020;23.992;2023-04-03T01:28:32;14.13;;;6.07;;
3249;SDS011;1637;42.020;23.992;2023-04-03T01:31:05;14.00;;;6.97;;
3249;SDS011;1637;42.020;23.992;2023-04-03T01:33:41;39.50;;;17.63;;
3249;SDS011;1637;42.020;23.992;2023-04-03T01:36:10;36.53;;;16.53;;
3249;SDS011;1637;42.020;23.992;2023-04-03T01:38:40;21.20;;;7.57;;
3249;SDS011;1637;42.020;23.992;2023-04-03T01:41:07;7.77;;;4.13;;
3249;SDS011;1637;42.020;23.992;2023-04-03T01:43:34;9.53;;;4.50;;
3249;SDS011;1637;42.020;23.992;2023-04-03T01:46:01;11.40;;;5.20;;
3249;SDS011;1637;42.020;23.992;2023-04-03T01:48:28;9.33;;;3.87;;
3249;SDS011;1637;42.020;23.992;2023-04-03T01:50:56;6.67;;;3.23;;
3249;SDS011;1637;42.020;23.992;2023-04-03T01:53:23;7.67;;;3.43;;
3249;SDS011;1637;42.020;23.992;2023-04-03T01:55:50;12.53;;;4.47;;
3249;SDS011;1637;42.020;23.992;2023-04-03T01:58:16;9.10;;;3.90;;
3249;SDS011;1637;42.020;23.992;2023-04-03T02:00:43;7.47;;;3.83;;
3249;SDS011;1637;42.020;23.992;2023-04-03T02:03:10;7.67;;;3.80;;
3249;SDS011;1637;42.020;23.992;2023-04-03T02:05:37;13.50;;;5.53;;
3249;SDS011;1637;42.020;23.992;2023-04-03T02:08:05;8.90;;;4.00;;
3249;SDS011;1637;42.020;23.992;2023-04-03T02:10:32;14.77;;;7.93;;
3249;SDS011;1637;42.020;23.992;2023-04-03T02:12:59;10.93;;;6.47;;
3249;SDS011;1637;42.020;23.992;2023-04-03T02:15:26;8.87;;;4.57;;
3249;SDS011;1637;42.020;23.992;2023-04-03T02:17:53;13.00;;;5.20;;
3249;SDS011;1637;42.020;23.992;2023-04-03T02:20:19;7.80;;;4.40;;
3249;SDS011;1637;42.020;23.992;2023-04-03T02:22:46;14.23;;;5.80;;
3249;SDS011;1637;42.020;23.992;2023-04-03T02:25:15;19.97;;;5.83;;
3249;SDS011;1637;42.020;23.992;2023-04-03T02:27:42;5.37;;;3.40;;
3249;SDS011;1637;42.020;23.992;2023-04-03T02:30:09;7.37;;;3.90;;
3249;SDS011;1637;42.020;23.992;2023-04-03T02:32:37;4.30;;;2.67;;
3249;SDS011;1637;42.020;23.992;2023-04-03T02:35:06;9.93;;;3.57;;
3249;SDS011;1637;42.020;23.992;2023-04-03T02:37:33;6.40;;;3.30;;
3249;SDS011;1637;42.020;23.992;2023-04-03T02:40:00;6.80;;;4.33;;
3249;SDS011;1637;42.020;23.992;2023-04-03T02:42:28;5.07;;;3.80;;
3249;SDS011;1637;42.020;23.992;2023-04-03T02:44:55;11.30;;;5.83;;
3249;SDS011;1637;42.020;23.992;2023-04-03T02:47:22;11.13;;;5.27;;
3249;SDS011;1637;42.020;23.992;2023-04-03T02:49:49;13.53;;;5.60;;
3249;SDS011;1637;42.020;23.992;2023-04-03T02:52:17;11.70;;;5.00;;
3249;SDS011;1637;42.020;23.992;2023-04-03T02:54:45;13.43;;;6.20;;
3249;SDS011;1637;42.020;23.992;2023-04-03T02:57:13;13.07;;;5.60;;
3249;SDS011;1637;42.020;23.992;2023-04-03T02:59:41;12.30;;;6.53;;
3249;SDS011;1637;42.020;23.992;2023-04-03T03:02:09;12.40;;;4.60;;
3249;SDS011;1637;42.020;23.992;2023-04-03T03:04:36;17.77;;;6.30;;
3249;SDS011;1637;42.020;23.992;2023-04-03T03:07:03;15.57;;;7.50;;
3249;SDS011;1637;42.020;23.992;2023-04-03T03:09:30;12.33;;;6.90;;
3249;SDS011;1637;42.020;23.992;2023-04-03T03:11:57;12.00;;;7.10;;
3249;SDS011;1637;42.020;23.992;2023-04-03T03:14:24;19.20;;;7.00;;
3249;SDS011;1637;42.020;23.992;2023-04-03T03:16:52;14.93;;;7.63;;
3249;SDS011;1637;42.020;23.992;2023-04-03T03:19:19;16.87;;;8.13;;
3249;SDS011;1637;42.020;23.992;2023-04-03T03:21:46;16.13;;;6.73;;
3249;SDS011;1637;42.020;23.992;2023-04-03T03:24:13;12.47;;;7.90;;
3249;SDS011;1637;42.020;23.992;2023-04-03T03:26:40;17.10;;;8.13;;
3249;SDS011;1637;42.020;23.992;2023-04-03T03:29:07;21.20;;;7.50;;
3249;SDS011;1637;42.020;23.992;2023-04-03T03:31:34;17.80;;;8.70;;
3249;SDS011;1637;42.020;23.992;2023-04-03T03:34:03;20.97;;;8.87;;
3249;SDS011;1637;42.020;23.992;2023-04-03T03:36:29;22.93;;;8.47;;
3249;SDS011;1637;42.020;23.992;2023-04-03T03:38:56;18.20;;;9.57;;
3249;SDS011;1637;42.020;23.992;2023-04-03T03:41:23;14.90;;;8.70;;
3249;SDS011;1637;42.020;23.992;2023-04-03T03:43:50;20.80;;;8.77;;
3249;SDS011;1637;42.020;23.992;2023-04-03T03:46:17;16.10;;;8.00;;
3249;SDS011;1637;42.020;23.992;2023-04-03T03:48:44;32.67;;;11.63;;
3249;SDS011;1637;42.020;23.992;2023-04-03T03:51:12;17.10;;;7.87;;
3249;SDS011;1637;42.020;23.992;2023-04-03T03:53:39;13.30;;;5.80;;
3249;SDS011;1637;42.020;23.992;2023-04-03T03:56:06;22.13;;;13.37;;
3249;SDS011;1637;42.020;23.992;2023-04-03T03:58:33;25.83;;;15.00;;
3249;SDS011;1637;42.020;23.992;2023-04-03T04:01:00;14.23;;;7.47;;
3249;SDS011;1637;42.020;23.992;2023-04-03T04:03:28;13.37;;;6.40;;
3249;SDS011;1637;42.020;23.992;2023-04-03T04:05:55;12.47;;;7.43;;
3249;SDS011;1637;42.020;23.992;2023-04-03T04:08:23;18.63;;;6.43;;
3249;SDS011;1637;42.020;23.992;2023-04-03T04:10:50;18.90;;;9.30;;
3249;SDS011;1637;42.020;23.992;2023-04-03T04:13:17;30.90;;;11.20;;
3249;SDS011;1637;42.020;23.992;2023-04-03T04:15:44;24.80;;;11.97;;
3249;SDS011;1637;42.020;23.992;2023-04-03T04:18:11;29.17;;;13.13;;
3249;SDS011;1637;42.020;23.992;2023-04-03T04:20:38;27.03;;;11.70;;
3249;SDS011;1637;42.020;23.992;2023-04-03T04:23:05;22.20;;;9.47;;
3249;SDS011;1637;42.020;23.992;2023-04-03T04:25:33;28.77;;;13.27;;
3249;SDS011;1637;42.020;23.992;2023-04-03T04:28:00;31.90;;;16.63;;
3249;SDS011;1637;42.020;23.992;2023-04-03T04:30:27;51.67;;;21.60;;
3249;SDS011;1637;42.020;23.992;2023-04-03T04:32:54;68.30;;;23.00;;
3249;SDS011;1637;42.020;23.992;2023-04-03T04:35:21;63.10;;;28.00;;
3249;SDS011;1637;42.020;23.992;2023-04-03T04:37:47;87.60;;;21.97;;
3249;SDS011;1637;42.020;23.992;2023-04-03T04:40:15;77.73;;;28.77;;
3249;SDS011;1637;42.020;23.992;2023-04-03T04:42:43;38.87;;;16.57;;
3249;SDS011;1637;42.020;23.992;2023-04-03T04:45:10;36.63;;;14.63;;
3249;SDS011;1637;42.020;23.992;2023-04-03T04:47:37;29.90;;;13.57;;
3249;SDS011;1637;42.020;23.992;2023-04-03T04:50:04;29.53;;;13.80;;
3249;SDS011;1637;42.020;23.992;2023-04-03T04:52:32;24.90;;;12.63;;
3249;SDS011;1637;42.020;23.992;2023-04-03T04:54:59;31.23;;;14.43;;
3249;SDS011;1637;42.020;23.992;2023-04-03T04:57:25;25.57;;;10.57;;
3249;SDS011;1637;42.020;23.992;2023-04-03T04:59:54;25.30;;;10.00;;
3249;SDS011;1637;42.020;23.992;2023-04-03T05:02:20;53.23;;;19.80;;
3249;SDS011;1637;42.020;23.992;2023-04-03T05:04:48;51.77;;;25.20;;
3249;SDS011;1637;42.020;23.992;2023-04-03T05:07:17;53.23;;;25.50;;
3249;SDS011;1637;42.020;23.992;2023-04-03T05:09:43;67.20;;;26.20;;
3249;SDS011;1637;42.020;23.992;2023-04-03T05:12:10;36.93;;;19.53;;
3249;SDS011;1637;42.020;23.992;2023-04-03T05:14:37;35.87;;;18.37;;
3249;SDS011;1637;42.020;23.992;2023-04-03T05:17:05;19.83;;;12.10;;
3249;SDS011;1637;42.020;23.992;2023-04-03T05:19:32;30.40;;;15.70;;
3249;SDS011;1637;42.020;23.992;2023-04-03T05:21:59;59.77;;;26.03;;
3249;SDS011;1637;42.020;23.992;2023-04-03T05:24:26;29.80;;;12.43;;
3249;SDS011;1637;42.020;23.992;2023-04-03T05:26:53;104.23;;;41.83;;
3249;SDS011;1637;42.020;23.992;2023-04-03T05:29:20;58.37;;;31.13;;
3249;SDS011;1637;42.020;23.992;2023-04-03T05:31:48;130.93;;;34.57;;
3249;SDS011;1637;42.020;23.992;2023-04-03T05:34:17;108.93;;;46.57;;
3249;SDS011;1637;42.020;23.992;2023-04-03T05:36:43;56.57;;;21.33;;
3249;SDS011;1637;42.020;23.992;2023-04-03T05:39:10;177.67;;;54.53;;
3249;SDS011;1637;42.020;23.992;2023-04-03T05:41:37;127.23;;;46.57;;
3249;SDS011;1637;42.020;23.992;2023-04-03T05:44:04;87.33;;;36.13;;
3249;SDS011;1637;42.020;23.992;2023-04-03T05:46:31;56.53;;;23.30;;
3249;SDS011;1637;42.020;23.992;2023-04-03T05:48:58;111.40;;;45.33;;
3249;SDS011;1637;42.020;23.992;2023-04-03T05:51:28;52.33;;;23.93;;
3249;SDS011;1637;42.020;23.992;2023-04-03T05:53:59;45.20;;;20.90;;
3249;SDS011;1637;42.020;23.992;2023-04-03T05:56:31;130.77;;;23.33;;
3249;SDS011;1637;42.020;23.992;2023-04-03T05:58:57;111.80;;;25.03;;
3249;SDS011;1637;42.020;23.992;2023-04-03T06:01:24;45.87;;;20.70;;
3249;SDS011;1637;42.020;23.992;2023-04-03T06:03:51;51.97;;;20.00;;
3249;SDS011;1637;42.020;23.992;2023-04-03T06:06:19;101.67;;;28.10;;
3249;SDS011;1637;42.020;23.992;2023-04-03T06:08:48;65.70;;;16.63;;
3249;SDS011;1637;42.020;23.992;2023-04-03T06:11:15;51.30;;;15.57;;
3249;SDS011;1637;42.020;23.992;2023-04-03T06:13:42;23.70;;;10.90;;
3249;SDS011;1637;42.020;23.992;2023-04-03T06:16:09;18.23;;;10.73;;
3249;SDS011;1637;42.020;23.992;2023-04-03T06:18:40;44.33;;;24.93;;
3249;SDS011;1637;42.020;23.992;2023-04-03T06:21:07;71.47;;;41.83;;
3249;SDS011;1637;42.020;23.992;2023-04-03T06:23:34;50.97;;;33.60;;
3249;SDS011;1637;42.020;23.992;2023-04-03T06:26:02;35.07;;;17.07;;
3249;SDS011;1637;42.020;23.992;2023-04-03T06:28:30;71.53;;;38.30;;
3249;SDS011;1637;42.020;23.992;2023-04-03T06:30:57;81.27;;;14.57;;
3249;SDS011;1637;42.020;23.992;2023-04-03T06:33:24;16.67;;;6.93;;
3249;SDS011;1637;42.020;23.992;2023-04-03T06:35:55;74.77;;;33.87;;
3249;SDS011;1637;42.020;23.992;2023-04-03T06:38:23;32.10;;;14.63;;
3249;SDS011;1637;42.020;23.992;2023-04-03T06:40:50;33.40;;;14.97;;
3249;SDS011;1637;42.020;23.992;2023-04-03T06:43:18;37.83;;;10.17;;
3249;SDS011;1637;42.020;23.992;2023-04-03T06:45:45;49.83;;;8.33;;
3249;SDS011;1637;42.020;23.992;2023-04-03T06:48:12;19.37;;;11.73;;
3249;SDS011;1637;42.020;23.992;2023-04-03T06:50:40;34.10;;;13.40;;
3249;SDS011;1637;42.020;23.992;2023-04-03T06:53:07;42.03;;;17.27;;
3249;SDS011;1637;42.020;23.992;2023-04-03T06:55:34;30.93;;;14.53;;
3249;SDS011;1637;42.020;23.992;2023-04-03T06:58:02;31.53;;;13.30;;
3249;SDS011;1637;42.020;23.992;2023-04-03T07:00:31;33.73;;;15.83;;
3249;SDS011;1637;42.020;23.992;2023-04-03T07:02:57;51.17;;;18.30;;
3249;SDS011;1637;42.020;23.992;2023-04-03T07:05:24;27.63;;;13.93;;
3249;SDS011;1637;42.020;23.992;2023-04-03T07:07:51;20.10;;;10.80;;
3249;SDS011;1637;42.020;23.992;2023-04-03T07:10:18;28.03;;;12.17;;
3249;SDS011;1637;42.020;23.992;2023-04-03T07:12:45;19.63;;;10.60;;
3249;SDS011;1637;42.020;23.992;2023-04-03T07:15:12;19.37;;;9.90;;
3249;SDS011;1637;42.020;23.992;2023-04-03T07:17:41;19.00;;;10.87;;
3249;SDS011;1637;42.020;23.992;2023-04-03T07:20:08;21.83;;;10.53;;
3249;SDS011;1637;42.020;23.992;2023-04-03T07:22:35;22.87;;;13.07;;
3249;SDS011;1637;42.020;23.992;2023-04-03T07:25:02;27.50;;;13.70;;
3249;SDS011;1637;42.020;23.992;2023-04-03T07:27:31;23.20;;;11.87;;
3249;SDS011;1637;42.020;23.992;2023-04-03T07:29:58;37.80;;;14.57;;
3249;SDS011;1637;42.020;23.992;2023-04-03T07:32:25;35.00;;;16.90;;
3249;SDS011;1637;42.020;23.992;2023-04-03T07:34:53;39.10;;;18.60;;
3249;SDS011;1637;42.020;23.992;2023-04-03T07:37:20;48.60;;;21.60;;
3249;SDS011;1637;42.020;23.992;2023-04-03T07:39:47;67.17;;;21.77;;
3249;SDS011;1637;42.020;23.992;2023-04-03T07:42:14;55.20;;;22.10;;
3249;SDS011;1637;42.020;23.992;2023-04-03T07:44:41;62.07;;;23.03;;
3249;SDS011;1637;42.020;23.992;2023-04-03T07:47:08;46.83;;;22.10;;
3249;SDS011;1637;42.020;23.992;2023-04-03T07:49:35;55.80;;;23.37;;
3249;SDS011;1637;42.020;23.992;2023-04-03T07:52:06;58.60;;;23.17;;
3249;SDS011;1637;42.020;23.992;2023-04-03T07:54:34;52.97;;;24.97;;
3249;SDS011;1637;42.020;23.992;2023-04-03T07:57:01;49.43;;;21.97;;
3249;SDS011;1637;42.020;23.992;2023-04-03T07:59:28;39.20;;;20.30;;
3249;SDS011;1637;42.020;23.992;2023-04-03T08:01:54;35.70;;;17.47;;
3249;SDS011;1637;42.020;23.992;2023-04-03T08:04:22;32.70;;;14.90;;
3249;SDS011;1637;42.020;23.992;2023-04-03T08:06:49;49.20;;;18.57;;
3249;SDS011;1637;42.020;23.992;2023-04-03T08:09:17;38.83;;;19.47;;
3249;SDS011;1637;42.020;23.992;2023-04-03T08:11:44;36.63;;;18.37;;
3249;SDS011;1637;42.020;23.992;2023-04-03T08:14:11;52.70;;;25.37;;
3249;SDS011;1637;42.020;23.992;2023-04-03T08:16:41;51.60;;;23.20;;
3249;SDS011;1637;42.020;23.992;2023-04-03T08:19:08;48.63;;;26.50;;
3249;SDS011;1637;42.020;23.992;2023-04-03T08:21:35;30.97;;;10.40;;
3249;SDS011;1637;42.020;23.992;2023-04-03T08:24:02;12.37;;;7.50;;
3249;SDS011;1637;42.020;23.992;2023-04-03T08:26:31;29.87;;;11.63;;
3249;SDS011;1637;42.020;23.992;2023-04-03T08:28:58;38.40;;;13.60;;
3249;SDS011;1637;42.020;23.992;2023-04-03T08:31:24;18.50;;;8.17;;
3249;SDS011;1637;42.020;23.992;2023-04-03T08:33:51;14.73;;;6.50;;
3249;SDS011;1637;42.020;23.992;2023-04-03T08:36:19;18.63;;;8.83;;
3249;SDS011;1637;42.020;23.992;2023-04-03T08:38:46;18.40;;;6.10;;
3249;SDS011;1637;42.020;23.992;2023-04-03T08:41:14;9.43;;;3.17;;
3249;SDS011;1637;42.020;23.992;2023-04-03T08:46:45;7.00;;;3.13;;
3249;SDS011;1637;42.020;23.992;2023-04-03T08:49:23;6.80;;;3.00;;
3249;SDS011;1637;42.020;23.992;2023-04-03T08:51:54;8.57;;;2.70;;
3249;SDS011;1637;42.020;23.992;2023-04-03T08:54:29;6.80;;;3.03;;
3249;SDS011;1637;42.020;23.992;2023-04-03T08:56:59;2.80;;;2.10;;
3249;SDS011;1637;42.020;23.992;2023-04-03T08:59:32;3.90;;;2.17;;
3249;SDS011;1637;42.020;23.992;2023-04-03T09:02:01;39.17;;;17.33;;
3249;SDS011;1637;42.020;23.992;2023-04-03T09:04:31;25.43;;;11.73;;
3249;SDS011;1637;42.020;23.992;2023-04-03T09:07:02;48.03;;;19.70;;
3249;SDS011;1637;42.020;23.992;2023-04-03T09:09:35;18.27;;;10.03;;
3249;SDS011;1637;42.020;23.992;2023-04-03T09:12:09;14.27;;;4.73;;
3249;SDS011;1637;42.020;23.992;2023-04-03T09:14:45;17.30;;;6.93;;
3249;SDS011;1637;42.020;23.992;2023-04-03T09:17:21;26.27;;;11.00;;
3249;SDS011;1637;42.020;23.992;2023-04-03T09:19:58;32.40;;;14.27;;
3249;SDS011;1637;42.020;23.992;2023-04-03T09:22:36;24.70;;;11.80;;
3249;SDS011;1637;42.020;23.992;2023-04-03T09:25:10;21.10;;;10.43;;
3249;SDS011;1637;42.020;23.992;2023-04-03T09:27:39;27.90;;;10.47;;
3249;SDS011;1637;42.020;23.992;2023-04-03T09:30:11;31.50;;;5.90;;
3249;SDS011;1637;42.020;23.992;2023-04-03T09:32:40;11.13;;;5.50;;
3249;SDS011;1637;42.020;23.992;2023-04-03T09:35:14;6.83;;;3.73;;
3249;SDS011;1637;42.020;23.992;2023-04-03T09:37:45;9.43;;;3.93;;
3249;SDS011;1637;42.020;23.992;2023-04-03T09:40:33;9.70;;;5.90;;
3249;SDS011;1637;42.020;23.992;2023-04-03T09:45:54;5.03;;;3.23;;
3249;SDS011;1637;42.020;23.992;2023-04-03T09:48:23;5.87;;;3.37;;
3249;SDS011;1637;42.020;23.992;2023-04-03T09:50:58;6.90;;;4.37;;
3249;SDS011;1637;42.020;23.992;2023-04-03T09:53:29;3.80;;;2.33;;
3249;SDS011;1637;42.020;23.992;2023-04-03T09:56:02;4.80;;;2.90;;
3249;SDS011;1637;42.020;23.992;2023-04-03T09:58:32;4.80;;;3.60;;
3249;SDS011;1637;42.020;23.992;2023-04-03T10:01:04;4.03;;;3.20;;
3249;SDS011;1637;42.020;23.992;2023-04-03T10:03:32;5.23;;;3.40;;
3249;SDS011;1637;42.020;23.992;2023-04-03T10:06:01;4.03;;;2.80;;
3249;SDS011;1637;42.020;23.992;2023-04-03T10:08:33;4.73;;;3.37;;
3249;SDS011;1637;42.020;23.992;2023-04-03T10:11:14;6.70;;;4.40;;
3249;SDS011;1637;42.020;23.992;2023-04-03T10:13:49;5.27;;;3.73;;
3249;SDS011;1637;42.020;23.992;2023-04-03T10:16:25;6.57;;;2.87;;
3249;SDS011;1637;42.020;23.992;2023-04-03T10:18:58;23.10;;;10.13;;
3249;SDS011;1637;42.020;23.992;2023-04-03T10:21:35;6.70;;;4.20;;
3249;SDS011;1637;42.020;23.992;2023-04-03T10:24:09;4.43;;;2.73;;
3249;SDS011;1637;42.020;23.992;2023-04-03T10:26:43;49.83;;;20.57;;
3249;SDS011;1637;42.020;23.992;2023-04-03T10:29:21;3.90;;;2.57;;
3249;SDS011;1637;42.020;23.992;2023-04-03T10:32:08;12.23;;;8.00;;
3249;SDS011;1637;42.020;23.992;2023-04-03T10:34:45;3.10;;;2.20;;
3249;SDS011;1637;42.020;23.992;2023-04-03T10:37:14;5.73;;;2.27;;
3249;SDS011;1637;42.020;23.992;2023-04-03T10:39:47;10.77;;;3.40;;
3249;SDS011;1637;42.020;23.992;2023-04-03T10:42:23;13.93;;;6.43;;
3249;SDS011;1637;42.020;23.992;2023-04-03T10:45:02;3.40;;;2.60;;
3249;SDS011;1637;42.020;23.992;2023-04-03T10:47:45;6.60;;;3.40;;
3249;SDS011;1637;42.020;23.992;2023-04-03T10:50:27;7.40;;;3.03;;
3249;SDS011;1637;42.020;23.992;2023-04-03T10:53:04;4.93;;;4.13;;
3249;SDS011;1637;42.020;23.992;2023-04-03T10:55:41;8.60;;;5.03;;
3249;SDS011;1637;42.020;23.992;2023-04-03T10:58:17;13.07;;;5.50;;
3249;SDS011;1637;42.020;23.992;2023-04-03T11:00:48;5.73;;;4.40;;
3249;SDS011;1637;42.020;23.992;2023-04-03T11:03:23;5.57;;;4.47;;
3249;SDS011;1637;42.020;23.992;2023-04-03T11:05:57;8.93;;;6.77;;
3249;SDS011;1637;42.020;23.992;2023-04-03T11:08:28;17.27;;;9.87;;
3249;SDS011;1637;42.020;23.992;2023-04-03T11:11:00;6.10;;;4.37;;
3249;SDS011;1637;42.020;23.992;2023-04-03T11:13:32;19.57;;;9.90;;
3249;SDS011;1637;42.020;23.992;2023-04-03T11:16:02;17.00;;;8.30;;
3249;SDS011;1637;42.020;23.992;2023-04-03T11:18:34;14.63;;;5.33;;
3249;SDS011;1637;42.020;23.992;2023-04-03T11:21:07;14.10;;;7.20;;
3249;SDS011;1637;42.020;23.992;2023-04-03T11:23:39;14.90;;;7.43;;
3249;SDS011;1637;42.020;23.992;2023-04-03T11:26:08;12.73;;;7.60;;
3249;SDS011;1637;42.020;23.992;2023-04-03T11:28:37;20.80;;;9.43;;
3249;SDS011;1637;42.020;23.992;2023-04-03T11:31:09;12.90;;;7.37;;
3249;SDS011;1637;42.020;23.992;2023-04-03T11:34:02;8.60;;;6.33;;
3249;SDS011;1637;42.020;23.992;2023-04-03T11:36:39;3.20;;;2.90;;
3249;SDS011;1637;42.020;23.992;2023-04-03T11:39:15;27.77;;;15.83;;
3249;SDS011;1637;42.020;23.992;2023-04-03T11:41:47;10.10;;;7.43;;
3249;SDS011;1637;42.020;23.992;2023-04-03T11:44:28;10.97;;;5.50;;
3249;SDS011;1637;42.020;23.992;2023-04-03T11:47:00;5.67;;;4.70;;
3249;SDS011;1637;42.020;23.992;2023-04-03T11:58:19;14.77;;;9.90;;
3249;SDS011;1637;42.020;23.992;2023-04-03T12:00:54;16.30;;;9.90;;
3249;SDS011;1637;42.020;23.992;2023-04-03T12:03:30;15.47;;;8.97;;
3249;SDS011;1637;42.020;23.992;2023-04-03T12:09:00;16.90;;;8.30;;
3249;SDS011;1637;42.020;23.992;2023-04-03T12:11:28;25.17;;;15.47;;
3249;SDS011;1637;42.020;23.992;2023-04-03T12:14:03;16.87;;;11.00;;
3249;SDS011;1637;42.020;23.992;2023-04-03T12:16:32;22.00;;;14.60;;
3249;SDS011;1637;42.020;23.992;2023-04-03T12:22:14;25.87;;;11.60;;
3249;SDS011;1637;42.020;23.992;2023-04-03T12:24:48;24.10;;;12.87;;
3249;SDS011;1637;42.020;23.992;2023-04-03T12:27:27;21.93;;;13.27;;
3249;SDS011;1637;42.020;23.992;2023-04-03T12:30:00;20.07;;;11.40;;
3249;SDS011;1637;42.020;23.992;2023-04-03T12:32:41;30.67;;;13.30;;
3249;SDS011;1637;42.020;23.992;2023-04-03T12:35:27;16.33;;;7.83;;
3249;SDS011;1637;42.020;23.992;2023-04-03T12:40:53;16.17;;;9.33;;
3249;SDS011;1637;42.020;23.992;2023-04-03T12:43:33;23.00;;;11.20;;
3249;SDS011;1637;42.020;23.992;2023-04-03T12:46:11;15.77;;;9.17;;
3249;SDS011;1637;42.020;23.992;2023-04-03T12:48:47;23.97;;;12.83;;
3249;SDS011;1637;42.020;23.992;2023-04-03T12:51:17;36.43;;;15.87;;
3249;SDS011;1637;42.020;23.992;2023-04-03T12:53:48;27.30;;;12.27;;
3249;SDS011;1637;42.020;23.992;2023-04-03T12:56:21;22.83;;;11.80;;
3249;SDS011;1637;42.020;23.992;2023-04-03T12:58:50;27.03;;;14.37;;
3249;SDS011;1637;42.020;23.992;2023-04-03T13:01:20;12.93;;;7.20;;
3249;SDS011;1637;42.020;23.992;2023-04-03T13:03:50;17.07;;;11.77;;
3249;SDS011;1637;42.020;23.992;2023-04-03T13:06:20;15.40;;;10.20;;
3249;SDS011;1637;42.020;23.992;2023-04-03T13:08:50;27.10;;;13.27;;
3249;SDS011;1637;42.020;23.992;2023-04-03T13:11:18;12.43;;;8.43;;
3249;SDS011;1637;42.020;23.992;2023-04-03T13:13:55;25.07;;;13.67;;
3249;SDS011;1637;42.020;23.992;2023-04-03T13:16:24;20.17;;;10.73;;
3249;SDS011;1637;42.020;23.992;2023-04-03T13:18:51;13.43;;;8.47;;
3249;SDS011;1637;42.020;23.992;2023-04-03T13:21:20;52.73;;;23.70;;
3249;SDS011;1637;42.020;23.992;2023-04-03T13:23:50;43.50;;;21.60;;
3249;SDS011;1637;42.020;23.992;2023-04-03T13:26:22;29.87;;;17.23;;
3249;SDS011;1637;42.020;23.992;2023-04-03T13:28:52;40.00;;;22.50;;
3249;SDS011;1637;42.020;23.992;2023-04-03T13:31:22;25.73;;;13.63;;
3249;SDS011;1637;42.020;23.992;2023-04-03T13:33:53;42.90;;;21.90;;
3249;SDS011;1637;42.020;23.992;2023-04-03T13:36:24;35.10;;;17.27;;
3249;SDS011;1637;42.020;23.992;2023-04-03T13:39:00;34.63;;;18.93;;
3249;SDS011;1637;42.020;23.992;2023-04-03T13:41:32;47.60;;;27.50;;
3249;SDS011;1637;42.020;23.992;2023-04-03T13:44:16;33.93;;;17.77;;
3249;SDS011;1637;42.020;23.992;2023-04-03T13:46:52;44.43;;;22.20;;
3249;SDS011;1637;42.020;23.992;2023-04-03T13:49:21;55.13;;;26.37;;
3249;SDS011;1637;42.020;23.992;2023-04-03T13:51:54;26.37;;;15.97;;
3249;SDS011;1637;42.020;23.992;2023-04-03T13:54:22;26.73;;;15.83;;
3249;SDS011;1637;42.020;23.992;2023-04-03T13:56:54;18.30;;;11.50;;
3249;SDS011;1637;42.020;23.992;2023-04-03T13:59:23;6.97;;;5.07;;
3249;SDS011;1637;42.020;23.992;2023-04-03T14:01:52;11.63;;;8.10;;
3249;SDS011;1637;42.020;23.992;2023-04-03T14:04:22;27.57;;;15.30;;
3249;SDS011;1637;42.020;23.992;2023-04-03T14:06:53;45.93;;;23.97;;
3249;SDS011;1637;42.020;23.992;2023-04-03T14:09:21;19.03;;;9.20;;
3249;SDS011;1637;42.020;23.992;2023-04-03T14:11:51;24.33;;;14.43;;
3249;SDS011;1637;42.020;23.992;2023-04-03T14:14:23;18.37;;;10.20;;
3249;SDS011;1637;42.020;23.992;2023-04-03T14:16:53;26.10;;;14.37;;
3249;SDS011;1637;42.020;23.992;2023-04-03T14:19:24;37.73;;;22.07;;
3249;SDS011;1637;42.020;23.992;2023-04-03T14:21:52;26.90;;;16.50;;
3249;SDS011;1637;42.020;23.992;2023-04-03T14:24:21;20.10;;;12.80;;
3249;SDS011;1637;42.020;23.992;2023-04-03T14:26:48;18.93;;;9.50;;
3249;SDS011;1637;42.020;23.992;2023-04-03T14:29:18;32.43;;;18.70;;
3249;SDS011;1637;42.020;23.992;2023-04-03T14:31:46;32.23;;;18.30;;
3249;SDS011;1637;42.020;23.992;2023-04-03T14:34:13;30.40;;;14.73;;
3249;SDS011;1637;42.020;23.992;2023-04-03T14:36:42;32.30;;;20.03;;
3249;SDS011;1637;42.020;23.992;2023-04-03T14:39:11;26.90;;;16.33;;
3249;SDS011;1637;42.020;23.992;2023-04-03T14:41:44;55.27;;;28.97;;
3249;SDS011;1637;42.020;23.992;2023-04-03T14:44:11;44.80;;;24.70;;
3249;SDS011;1637;42.020;23.992;2023-04-03T14:46:41;49.77;;;25.93;;
3249;SDS011;1637;42.020;23.992;2023-04-03T14:49:11;42.47;;;22.60;;
3249;SDS011;1637;42.020;23.992;2023-04-03T14:51:40;58.33;;;31.00;;
3249;SDS011;1637;42.020;23.992;2023-04-03T14:54:10;53.60;;;29.60;;
3249;SDS011;1637;42.020;23.992;2023-04-03T14:56:39;19.77;;;10.20;;
3249;SDS011;1637;42.020;23.992;2023-04-03T14:59:08;35.77;;;21.90;;
3249;SDS011;1637;42.020;23.992;2023-04-03T15:01:37;33.43;;;19.73;;
3249;SDS011;1637;42.020;23.992;2023-04-03T15:04:08;29.87;;;17.80;;
3249;SDS011;1637;42.020;23.992;2023-04-03T15:06:37;49.47;;;24.70;;
3249;SDS011;1637;42.020;23.992;2023-04-03T15:09:03;40.43;;;23.43;;
3249;SDS011;1637;42.020;23.992;2023-04-03T15:11:30;44.03;;;24.97;;
3249;SDS011;1637;42.020;23.992;2023-04-03T15:13:57;40.63;;;22.63;;
3249;SDS011;1637;42.020;23.992;2023-04-03T15:16:24;20.33;;;9.40;;
3249;SDS011;1637;42.020;23.992;2023-04-03T15:18:52;24.30;;;15.57;;
3249;SDS011;1637;42.020;23.992;2023-04-03T15:21:20;31.60;;;19.43;;
3249;SDS011;1637;42.020;23.992;2023-04-03T15:23:47;35.50;;;16.57;;